createdAt,value
2019-04-29T00:03:26.198Z,15.07
2019-04-29T00:08:31.461Z,15.20
2019-04-29T00:13:36.621Z,14.60
2019-04-29T00:18:52.313Z,15.70
2019-04-29T00:24:04.140Z,14.83
2019-04-29T00:29:05.366Z,16.83
2019-04-29T00:34:10.519Z,15.17
2019-04-29T00:39:49.876Z,17.33
2019-04-29T00:44:55.034Z,17.70
2019-04-29T00:50:00.194Z,13.33
2019-04-29T00:55:09.900Z,15.63
2019-04-29T01:00:23.640Z,15.97
2019-04-29T01:05:29.098Z,14.13
2019-04-29T01:10:34.264Z,16.37
2019-04-29T01:15:40.327Z,14.23
2019-04-29T01:20:46.138Z,13.37
2019-04-29T01:25:55.062Z,15.73
2019-04-29T01:31:11.875Z,14.77
2019-04-29T01:36:36.032Z,12.37
2019-04-29T01:42:05.230Z,13.60
2019-04-29T01:47:10.403Z,10.27
2019-04-29T01:52:15.550Z,11.70
2019-04-29T01:57:20.789Z,13.27
2019-04-29T02:02:26.047Z,11.43
2019-04-29T02:07:31.227Z,13.17
2019-04-29T02:12:36.387Z,13.27
2019-04-29T02:17:41.551Z,19.27
2019-04-29T02:23:05.034Z,18.00
2019-04-29T02:28:10.195Z,19.73
2019-04-29T02:33:15.364Z,20.27
2019-04-29T02:38:31.269Z,19.43
2019-04-29T02:43:37.996Z,15.97
2019-04-29T02:48:43.156Z,18.57
2019-04-29T02:53:48.461Z,18.10
2019-04-29T02:58:59.712Z,16.93
2019-04-29T03:04:19.938Z,17.07
2019-04-29T03:09:25.122Z,10.17
2019-04-29T03:14:30.385Z,17.57
2019-04-29T03:19:38.616Z,16.50
2019-04-29T03:24:44.114Z,21.77
2019-04-29T03:29:49.347Z,23.00
2019-04-29T03:34:55.006Z,17.93
2019-04-29T03:40:01.490Z,21.57
2019-04-29T03:45:08.000Z,19.40
2019-04-29T03:50:13.816Z,22.87
2019-04-29T03:55:37.683Z,22.80
2019-04-29T04:00:26.942Z,19.87
2019-04-29T04:05:38.462Z,19.60
2019-04-29T04:10:43.645Z,19.03
2019-04-29T04:15:48.856Z,21.77
2019-04-29T04:20:54.425Z,19.20
2019-04-29T04:25:59.601Z,16.30
2019-04-29T04:31:07.037Z,19.40
2019-04-29T04:36:12.647Z,21.70
2019-04-29T04:41:17.820Z,17.67
2019-04-29T04:46:25.108Z,20.40
2019-04-29T04:51:30.618Z,17.77
2019-04-29T04:56:37.269Z,17.00
2019-04-29T05:01:43.897Z,19.07
2019-04-29T05:06:49.538Z,17.93
2019-04-29T05:11:55.509Z,18.63
2019-04-29T05:17:01.049Z,16.87
2019-04-29T05:22:06.670Z,18.30
2019-04-29T05:27:13.060Z,18.47
2019-04-29T05:32:18.703Z,19.73
2019-04-29T05:37:32.646Z,21.13
2019-04-29T05:42:39.169Z,20.17
2019-04-29T05:47:47.701Z,19.17
2019-04-29T05:53:01.803Z,17.07
2019-04-29T05:58:13.246Z,21.03
2019-04-29T06:03:18.454Z,16.57
2019-04-29T06:08:24.041Z,19.33
2019-04-29T06:13:30.220Z,18.67
2019-04-29T06:18:35.526Z,19.30
2019-04-29T06:23:41.072Z,17.03
2019-04-29T06:28:46.776Z,19.77
2019-04-29T06:33:52.099Z,22.10
2019-04-29T06:38:58.319Z,16.70
2019-04-29T06:44:06.730Z,18.03
2019-04-29T06:49:11.828Z,18.97
2019-04-29T06:54:17.001Z,22.10
2019-04-29T06:59:23.842Z,19.13
2019-04-29T07:04:30.743Z,18.07
2019-04-29T07:09:37.389Z,17.60
2019-04-29T07:14:42.581Z,19.93
2019-04-29T07:19:47.770Z,19.20
2019-04-29T07:24:52.939Z,18.63
2019-04-29T07:30:01.853Z,17.30
2019-04-29T07:35:09.908Z,19.87
2019-04-29T07:40:14.050Z,21.97
2019-04-29T07:45:43.656Z,17.12
2019-04-29T07:50:38.429Z,16.03
2019-04-29T07:55:44.829Z,18.27
2019-04-29T08:00:50.273Z,18.20
2019-04-29T08:05:55.495Z,20.10
2019-04-29T08:11:01.581Z,20.55
2019-04-29T08:16:07.604Z,20.05
2019-04-29T08:21:14.407Z,19.53
2019-04-29T08:26:20.031Z,18.13
2019-04-29T08:31:25.716Z,22.03
2019-04-29T08:36:31.699Z,24.07
2019-04-29T08:41:36.948Z,22.60
2019-04-29T08:46:51.689Z,25.40
2019-04-29T08:51:53.423Z,25.02
2019-04-29T08:57:03.118Z,26.00
2019-04-29T09:02:10.306Z,31.40
2019-04-29T09:07:17.472Z,30.60
2019-04-29T15:45:34.247Z,28.67
2019-04-29T15:50:39.466Z,35.73
2019-04-29T15:55:44.627Z,32.73
2019-04-29T16:00:50.077Z,35.37
2019-04-29T16:06:21.176Z,37.30
2019-04-29T16:11:36.302Z,54.18
2019-04-29T16:16:42.758Z,53.63
2019-04-29T16:21:48.398Z,61.63
2019-04-29T16:26:54.020Z,62.23
2019-04-29T16:32:02.373Z,60.00
2019-04-29T16:37:06.495Z,52.83
2019-04-29T16:42:19.953Z,52.25
2019-04-29T16:47:26.371Z,55.55
2019-04-29T16:52:31.625Z,52.73
2019-04-29T16:57:36.859Z,54.53
2019-04-29T17:02:42.034Z,51.53
2019-04-29T17:07:48.925Z,53.15
2019-04-29T17:12:54.166Z,53.70
2019-04-29T17:17:59.255Z,51.20
2019-04-29T17:23:05.083Z,55.48
2019-04-29T17:28:25.468Z,56.70
2019-04-29T17:33:49.218Z,60.40
2019-04-29T17:38:50.273Z,63.37
2019-04-29T17:44:18.697Z,57.27
2019-04-29T17:54:55.059Z,60.20
2019-04-29T18:00:22.861Z,63.37
2019-04-29T18:05:54.336Z,57.43
2019-04-29T18:10:53.361Z,59.40
2019-04-29T18:16:04.018Z,60.30
2019-04-29T18:21:18.124Z,60.50
2019-04-29T18:26:35.821Z,54.57
2019-04-29T18:31:41.093Z,58.90
2019-04-29T18:36:46.183Z,54.17
2019-04-29T18:41:51.371Z,66.12
2019-04-29T18:46:57.303Z,65.07
2019-04-29T18:52:05.708Z,65.97
2019-04-29T18:57:09.797Z,66.70
2019-04-29T19:02:15.892Z,65.87
2019-04-29T19:07:21.239Z,67.35
2019-04-29T19:12:26.484Z,69.05
2019-04-29T19:17:36.755Z,69.07
2019-04-29T19:22:39.909Z,63.35
2019-04-29T19:27:45.551Z,66.33
2019-04-29T19:32:53.965Z,73.90
2019-04-29T19:37:58.439Z,71.43
2019-04-29T19:43:05.963Z,76.07
2019-04-29T19:48:10.997Z,76.02
2019-04-29T19:53:16.704Z,76.33
2019-04-29T19:58:28.529Z,70.73
2019-04-29T20:03:36.308Z,71.43
2019-04-29T20:08:51.055Z,67.25
2019-04-29T20:14:01.226Z,58.30
2019-04-29T20:19:28.271Z,56.33
2019-04-29T20:24:37.145Z,53.80
2019-04-29T20:29:43.018Z,54.30
2019-04-29T20:34:48.503Z,53.73
2019-04-29T20:39:57.228Z,46.77
2019-04-29T20:45:00.858Z,46.75
2019-04-29T20:50:08.997Z,49.23
2019-04-29T20:55:15.948Z,49.05
2019-04-29T21:00:24.826Z,45.97
2019-04-29T21:05:29.454Z,48.23
2019-04-29T21:10:37.931Z,47.23
2019-04-29T21:15:52.302Z,43.87
2019-04-29T21:20:59.548Z,43.10
2019-04-29T21:26:08.678Z,43.98
2019-04-29T21:31:16.671Z,42.53
2019-04-29T21:36:48.971Z,45.43
2019-04-29T21:42:02.335Z,46.37
2019-04-29T21:47:08.140Z,47.13
2019-04-29T21:52:15.238Z,45.43
2019-04-29T21:57:23.735Z,44.33
2019-04-29T22:02:27.198Z,48.47
2019-04-29T22:07:32.308Z,46.97
2019-04-29T22:12:37.714Z,45.27
2019-04-29T22:17:54.408Z,47.87
2019-04-29T22:22:49.676Z,42.80
2019-04-29T22:27:55.680Z,44.85
2019-04-29T22:33:00.915Z,41.90
2019-04-29T22:38:07.860Z,40.10
2019-04-29T22:43:18.562Z,41.77
2019-04-29T22:48:25.019Z,38.23
2019-04-29T22:53:30.433Z,36.08
2019-04-29T22:58:39.498Z,42.63
2019-04-29T23:03:42.302Z,40.60
2019-04-29T23:08:47.487Z,38.37
2019-04-29T23:13:52.918Z,41.97
2019-04-29T23:18:58.086Z,43.03
2019-04-29T23:24:26.119Z,45.67
2019-04-29T23:29:31.274Z,39.70
2019-04-29T23:34:36.453Z,35.17
2019-04-29T23:39:41.618Z,38.33
2019-04-29T23:44:46.774Z,36.60
2019-04-29T23:49:51.858Z,37.97
2019-04-29T23:54:57.774Z,36.37
